Time;durP1;ratioP1;P1;durP2;ratioP2;P2;SDS_P1;SDS_P2;PMS_P1;PMS_P2;Temp;Humidity;BMP_temperature;BMP_pressure;BME280_temperature;BME280_humidity;BME280_pressure;Samples;Min_cycle;Max_cycle;Signal;HPM_P1;HPM_P2
2022/07/31 00:01:42;;;;;;;5.15;2.55;;;;;;;18.36;51.42;100662.16;10193022;29;20058;-78
2022/07/31 00:06:46;;;;;;;4.55;2.53;;;;;;;18.48;51.47;100650.94;10195092;29;21138;-77
2022/07/31 00:11:49;;;;;;;4.50;2.60;;;;;;;18.75;51.45;100639.72;10181163;29;20140;-78
2022/07/31 00:16:52;;;;;;;3.70;3.17;;;;;;;18.73;51.31;100646.34;10194130;29;20055;-77
2022/07/31 00:21:57;;;;;;;2.88;2.47;;;;;;;18.77;51.55;100637.66;10180382;29;20048;-79
2022/07/31 00:27:00;;;;;;;7.75;2.83;;;;;;;18.75;51.64;100639.72;10181642;29;20060;-78
2022/07/31 00:32:04;;;;;;;5.15;3.08;;;;;;;18.56;52.15;100637.34;10178839;29;20168;-78
2022/07/31 00:37:08;;;;;;;3.95;3.08;;;;;;;18.54;53.34;100625.78;10181049;29;20150;-78
2022/07/31 00:42:17;;;;;;;4.95;3.28;;;;;;;18.58;53.97;100627.16;10179342;29;20059;-77
2022/07/31 00:47:19;;;;;;;8.15;3.50;;;;;;;18.68;53.60;100618.81;10179326;29;20067;-77
2022/07/31 00:52:28;;;;;;;3.58;2.70;;;;;;;18.57;54.22;100626.31;10181106;29;20058;-77
2022/07/31 00:57:31;;;;;;;5.72;3.45;;;;;;;18.51;54.34;100620.69;10179921;29;20058;-78
2022/07/31 01:02:34;;;;;;;7.72;4.03;;;;;;;18.45;54.08;100616.78;10180072;29;20059;-77
2022/07/31 01:07:38;;;;;;;3.65;3.15;;;;;;;18.43;54.79;100612.53;10177985;29;20192;-77
2022/07/31 01:12:47;;;;;;;10.93;3.40;;;;;;;18.15;55.07;100629.16;10172778;29;20532;-77
2022/07/31 01:17:56;;;;;;;5.45;3.80;;;;;;;17.89;55.97;100623.84;10195374;29;20058;-78
2022/07/31 01:23:24;;;;;;;4.18;3.40;;;;;;;17.88;56.14;100619.41;10180811;29;20065;-78
2022/07/31 01:29:00;;;;;;;5.22;4.35;;;;;;;17.89;56.32;100616.53;10177918;29;20062;-77
2022/07/31 01:34:10;;;;;;;5.70;3.70;;;;;;;17.93;56.06;100612.44;10174997;29;20071;-78
2022/07/31 01:39:13;;;;;;;4.50;3.70;;;;;;;17.91;56.33;100610.94;10175390;29;20050;-78
2022/07/31 01:44:20;;;;;;;6.18;3.72;;;;;;;17.71;56.23;100604.94;10176120;29;21189;-78
2022/07/31 01:49:23;;;;;;;5.30;4.10;;;;;;;17.63;56.92;100608.47;10178717;29;20039;-77
2022/07/31 01:54:28;;;;;;;5.68;3.70;;;;;;;17.60;57.98;100599.81;10175623;29;20465;-78
2022/07/31 01:59:34;;;;;;;5.75;3.63;;;;;;;17.57;57.78;100602.84;10190069;29;20052;-80
2022/07/31 02:04:45;;;;;;;7.17;3.90;;;;;;;17.54;57.92;100597.75;10177373;29;20417;-78
2022/07/31 02:09:50;;;;;;;4.38;3.58;;;;;;;17.49;57.92;100598.25;10193114;29;20417;-79
2022/07/31 02:15:08;;;;;;;4.47;3.70;;;;;;;17.38;58.29;100596.66;10205913;29;20051;-78
2022/07/31 02:20:15;;;;;;;9.65;4.45;;;;;;;17.25;58.06;100578.16;10183420;29;20048;-79
2022/07/31 02:25:18;;;;;;;7.47;4.55;;;;;;;17.15;58.03;100592.84;10179249;29;20055;-78
2022/07/31 02:30:23;;;;;;;5.20;4.57;;;;;;;17.06;57.83;100582.91;10195273;29;20118;-79
2022/07/31 02:35:26;;;;;;;5.68;4.95;;;;;;;16.91;58.82;100577.25;10177288;29;20119;-79
2022/07/31 02:40:30;;;;;;;4.30;3.90;;;;;;;16.90;59.11;100579.13;10193287;29;20072;-79
2022/07/31 02:45:34;;;;;;;5.47;4.53;;;;;;;16.95;59.14;100574.06;10176493;29;20417;-78
2022/07/31 02:50:39;;;;;;;5.15;4.47;;;;;;;17.02;59.41;100574.25;10176976;29;20062;-79
2022/07/31 02:55:44;;;;;;;6.47;5.57;;;;;;;16.93;59.27;100564.38;10178374;29;20070;-78
2022/07/31 03:00:57;;;;;;;8.48;5.95;;;;;;;16.81;59.23;100561.06;10191454;29;20063;-78
2022/07/31 03:06:00;;;;;;;5.25;4.72;;;;;;;16.80;59.52;100565.66;10193282;29;20047;-78
2022/07/31 03:11:03;;;;;;;8.05;5.10;;;;;;;16.70;59.76;100573.06;10193484;29;20543;-78
2022/07/31 03:16:10;;;;;;;6.60;5.40;;;;;;;16.58;60.10;100563.50;10175070;29;20054;-78
2022/07/31 03:21:13;;;;;;;5.68;5.18;;;;;;;16.58;60.65;100568.91;10175662;29;20051;-78
2022/07/31 03:26:17;;;;;;;7.28;5.93;;;;;;;16.48;61.49;100562.72;10175518;29;20810;-78
2022/07/31 03:31:21;;;;;;;6.50;5.38;;;;;;;16.42;62.38;100564.22;10175553;29;20062;-79
2022/07/31 03:36:25;;;;;;;9.18;5.95;;;;;;;16.34;62.81;100567.72;10176015;29;20054;-77
2022/07/31 03:41:27;;;;;;;6.25;5.15;;;;;;;16.38;62.74;100556.56;10176823;29;20114;-78
2022/07/31 03:46:32;;;;;;;9.02;5.47;;;;;;;16.43;62.84;100559.63;10180412;29;20055;-78
2022/07/31 03:51:35;;;;;;;6.30;5.60;;;;;;;16.44;62.82;100551.38;10187636;29;20055;-78
2022/07/31 03:56:40;;;;;;;5.97;5.40;;;;;;;16.52;62.91;100554.13;10178469;29;20099;-78
2022/07/31 04:01:49;;;;;;;7.15;6.45;;;;;;;16.64;62.76;100556.56;10200158;29;20052;-78
2022/07/31 04:07:26;;;;;;;8.05;6.55;;;;;;;16.79;62.58;100552.28;10167653;29;20075;-78
2022/07/31 04:12:29;;;;;;;7.70;6.90;;;;;;;16.88;62.71;100553.16;10177534;29;20074;-79
2022/07/31 04:17:33;;;;;;;8.23;6.47;;;;;;;16.97;62.69;100573.88;10178650;29;20056;-77
2022/07/31 04:22:36;;;;;;;10.43;6.43;;;;;;;17.08;62.52;100573.59;10179279;29;20051;-78
2022/07/31 04:27:46;;;;;;;7.50;6.20;;;;;;;17.12;62.45;100575.00;10182490;29;20099;-78
2022/07/31 04:32:52;;;;;;;8.68;6.05;;;;;;;17.12;62.95;100569.56;10175712;29;20074;-79
2022/07/31 04:37:57;;;;;;;6.80;6.13;;;;;;;17.23;62.81;100573.88;10180408;29;20122;-78
2022/07/31 04:43:01;;;;;;;9.38;6.75;;;;;;;17.39;62.39;100573.94;10197479;29;20047;-78
2022/07/31 04:48:06;;;;;;;11.77;7.10;;;;;;;17.59;62.31;100579.94;10182627;29;20139;-78
2022/07/31 04:53:09;;;;;;;10.40;6.57;;;;;;;17.72;62.03;100565.03;10180322;29;20093;-80
2022/07/31 04:58:15;;;;;;;10.07;7.00;;;;;;;17.77;62.42;100555.38;10197077;29;20055;-78
2022/07/31 05:03:19;;;;;;;8.55;6.80;;;;;;;17.80;62.27;100555.03;10179457;29;20151;-78
2022/07/31 05:08:22;;;;;;;12.52;6.40;;;;;;;17.76;62.80;100542.78;10179683;29;20047;-79
2022/07/31 05:13:25;;;;;;;8.27;6.57;;;;;;;17.93;62.60;100552.66;10175553;29;20054;-77
2022/07/31 05:18:29;;;;;;;10.23;6.50;;;;;;;;;;10176378;29;20076;-78
2022/07/31 05:23:50;;;;;;;;;;;;;;;18.22;61.91;100551.34;10180343;29;20190;-78
2022/07/31 05:29:12;;;;;;;8.93;7.10;;;;;;;18.29;61.98;100541.50;10190911;29;19942;-79
2022/07/31 05:34:16;;;;;;;7.78;6.97;;;;;;;18.39;61.51;100544.03;10178548;29;20413;-80
2022/07/31 05:39:19;;;;;;;12.35;7.40;;;;;;;18.33;61.84;100548.28;10195468;29;20046;-81
2022/07/31 05:44:47;;;;;;;10.07;8.05;;;;;;;18.26;62.26;100544.53;10187970;29;20841;-79
2022/07/31 05:49:52;;;;;;;10.45;7.72;;;;;;;18.36;62.34;100542.50;10214498;29;20060;-80
2022/07/31 05:54:56;;;;;;;10.57;7.38;;;;;;;18.40;62.25;100550.31;10197048;29;20071;-80
2022/07/31 06:00:31;;;;;;;12.02;7.95;;;;;;;18.58;62.48;100548.25;10133888;29;20058;-80
2022/07/31 06:05:36;;;;;;;8.25;7.45;;;;;;;18.80;61.44;100550.28;10187887;28;20540;-81
2022/07/31 06:10:39;;;;;;;8.95;7.57;;;;;;;19.08;61.19;100540.84;10173408;28;21662;-82
2022/07/31 06:15:42;;;;;;;9.13;7.97;;;;;;;19.26;60.49;100535.16;10181075;29;20053;-81
2022/07/31 06:20:52;;;;;;;8.93;7.53;;;;;;;19.47;60.35;100527.19;10196123;29;20054;-81
2022/07/31 06:25:55;;;;;;;8.90;6.72;;;;;;;19.81;59.30;100534.16;10177088;29;20138;-81
2022/07/31 06:30:58;;;;;;;14.65;7.07;;;;;;;19.76;59.57;100528.41;10203623;29;21354;-79
2022/07/31 06:36:03;;;;;;;10.05;6.82;;;;;;;19.90;59.42;100516.72;10209047;29;20052;-81
2022/07/31 06:41:43;;;;;;;7.93;7.13;;;;;;;20.15;59.25;100514.63;10180382;29;20051;-80
2022/07/31 06:46:55;;;;;;;;;;;;;;;20.13;59.31;100514.81;10189936;29;20517;-80
2022/07/31 06:52:18;;;;;;;10.25;6.97;;;;;;;20.25;58.90;100523.41;10203388;29;19933;-80
2022/07/31 06:57:20;;;;;;;13.98;7.53;;;;;;;20.35;58.56;100512.28;10200686;29;20044;-79
2022/07/31 07:02:24;;;;;;;9.43;7.18;;;;;;;20.43;58.38;100503.13;10182890;28;20149;-79
2022/07/31 07:07:29;;;;;;;9.27;7.55;;;;;;;20.27;58.71;100496.81;10179378;28;20070;-80
2022/07/31 07:12:34;;;;;;;9.90;7.43;;;;;;;20.53;58.22;100498.28;10192132;28;20052;-79
2022/07/31 07:17:37;;;;;;;10.43;7.20;;;;;;;20.65;57.96;100501.38;10183604;28;20043;-79
2022/07/31 07:22:48;;;;;;;7.13;5.65;;;;;;;20.85;57.71;100507.13;10179808;28;20670;-80
2022/07/31 07:28:07;;;;;;;10.73;7.30;;;;;;;20.87;57.39;100505.03;10177207;28;20056;-80
2022/07/31 07:33:17;;;;;;;6.43;5.72;;;;;;;21.07;57.59;100499.91;10182619;28;20052;-79
2022/07/31 07:38:42;;;;;;;7.40;6.45;;;;;;;21.42;56.37;100490.88;10169593;28;20052;-80
2022/07/31 07:43:47;;;;;;;7.47;5.93;;;;;;;21.43;56.04;100489.81;10175281;29;20056;-79
2022/07/31 07:49:04;;;;;;;5.75;5.20;;;;;;;21.81;54.50;100484.16;10192547;28;20082;-79
2022/07/31 07:54:37;;;;;;;6.80;5.07;;;;;;;22.38;53.52;100481.44;10177249;29;20110;-79
2022/07/31 07:59:59;;;;;;;10.20;5.32;;;;;;;22.97;52.06;100483.72;10180662;29;21198;-79
2022/07/31 08:05:18;;;;;;;4.63;3.80;;;;;;;22.82;51.04;100474.78;10192308;29;20044;-79
2022/07/31 08:10:22;;;;;;;7.45;4.70;;;;;;;22.55;52.13;100469.19;10204253;29;20091;-80
2022/07/31 08:15:31;;;;;;;7.20;4.68;;;;;;;22.79;52.24;100467.84;10187398;29;20151;-79
2022/07/31 08:20:45;;;;;;;7.13;4.13;;;;;;;23.32;51.57;100450.81;10190318;29;20071;-79
2022/07/31 08:25:50;;;;;;;9.57;3.72;;;;;;;23.61;50.01;100449.56;10186841;29;20078;-79
2022/07/31 08:30:53;;;;;;;4.28;3.50;;;;;;;23.99;50.03;100438.03;10184986;29;20052;-78
2022/07/31 08:35:59;;;;;;;4.82;3.20;;;;;;;24.23;47.83;100440.13;10192496;29;20099;-79
2022/07/31 08:41:04;;;;;;;3.72;3.38;;;;;;;25.07;44.73;100441.22;10205869;29;20417;-79
2022/07/31 08:46:08;;;;;;;6.25;3.42;;;;;;;25.46;45.07;100441.19;10188076;29;20040;-79
2022/07/31 08:51:15;;;;;;;2.95;2.70;;;;;;;25.55;43.84;100437.09;10206941;29;20513;-79
2022/07/31 08:56:45;;;;;;;2.85;2.38;;;;;;;25.65;40.92;100437.50;10185608;28;20067;-79
2022/07/31 09:01:50;;;;;;;4.85;2.50;;;;;;;25.04;40.54;100429.78;10194897;28;20051;-79
2022/07/31 09:06:55;;;;;;;7.00;2.90;;;;;;;24.84;41.68;100427.94;10189027;28;20594;-79
2022/07/31 09:12:00;;;;;;;4.22;2.70;;;;;;;24.91;40.77;100433.44;10187970;28;20107;-80
2022/07/31 09:17:32;;;;;;;5.65;2.75;;;;;;;24.78;41.73;100423.31;10191687;28;20048;-78
2022/07/31 09:22:35;;;;;;;3.67;2.65;;;;;;;24.42;42.81;100421.13;10219992;29;20097;-78
2022/07/31 09:27:40;;;;;;;4.38;2.83;;;;;;;25.21;41.81;100422.75;10210359;29;20047;-80
2022/07/31 09:32:44;;;;;;;6.78;2.60;;;;;;;24.73;42.42;100425.88;10206462;29;20146;-79
2022/07/31 09:37:55;;;;;;;2.77;2.47;;;;;;;24.50;42.91;100423.63;10207586;28;20044;-79
2022/07/31 09:43:23;;;;;;;5.37;2.63;;;;;;;24.30;43.53;100412.69;10190444;28;20935;-79
2022/07/31 09:48:28;;;;;;;6.77;2.60;;;;;;;24.47;43.65;100413.94;10185363;28;20795;-79
2022/07/31 09:53:41;;;;;;;2.50;2.30;;;;;;;24.86;42.44;100405.75;10189717;28;20047;-79
2022/07/31 09:59:07;;;;;;;3.05;2.58;;;;;;;24.85;41.77;100406.81;10189000;29;20532;-80
2022/07/31 10:04:16;;;;;;;3.28;2.25;;;;;;;24.86;42.48;100409.34;10204060;29;20051;-79
2022/07/31 10:09:21;;;;;;;4.07;2.65;;;;;;;25.09;42.62;100394.25;10187876;29;20079;-80
2022/07/31 10:14:50;;;;;;;4.95;2.45;;;;;;;24.87;44.15;100397.28;10179134;29;20048;-79
2022/07/31 10:19:58;;;;;;;2.63;2.42;;;;;;;24.65;44.34;100395.91;10172687;29;20190;-78
2022/07/31 10:25:24;;;;;;;2.47;2.00;;;;;;;25.52;41.99;100383.41;10205060;29;20554;-80
2022/07/31 10:30:29;;;;;;;3.22;2.28;;;;;;;26.09;40.89;100391.63;10186807;28;20055;-80
2022/07/31 10:35:43;;;;;;;2.88;2.35;;;;;;;26.07;40.64;100380.81;10186174;29;20051;-79
2022/07/31 10:41:24;;;;;;;2.97;2.40;;;;;;;27.10;39.67;100379.22;10191637;29;20625;-79
2022/07/31 10:46:29;;;;;;;2.38;2.15;;;;;;;26.81;40.66;100385.53;10189010;28;21245;-80
2022/07/31 10:51:52;;;;;;;4.10;2.42;;;;;;;26.38;40.44;100375.44;10193517;28;20067;-79
2022/07/31 10:57:22;;;;;;;8.88;3.63;;;;;;;26.00;41.61;100380.06;10192713;28;20048;-80
2022/07/31 11:02:49;;;;;;;2.58;2.47;;;;;;;25.18;41.95;100379.22;10190483;28;20066;-79
2022/07/31 11:08:11;;;;;;;5.00;2.92;;;;;;;24.78;43.40;100373.03;10202047;29;20079;-78
2022/07/31 11:13:28;;;;;;;4.03;2.90;;;;;;;25.29;42.92;100361.16;10177800;29;20564;-77
2022/07/31 11:18:58;;;;;;;6.00;2.60;;;;;;;25.17;43.26;100356.34;10171318;29;20082;-78
2022/07/31 11:24:12;;;;;;;5.45;3.13;;;;;;;24.88;43.93;100359.69;10155654;29;20062;-78
2022/07/31 11:29:26;;;;;;;5.43;2.80;;;;;;;24.97;43.77;100358.38;10166201;29;20521;-77
2022/07/31 11:34:52;;;;;;;3.42;2.70;;;;;;;25.33;43.07;100341.25;10178066;29;20409;-77
2022/07/31 11:39:56;;;;;;;3.40;2.63;;;;;;;25.72;42.70;100332.91;10177517;29;20075;-78
2022/07/31 11:45:03;;;;;;;2.50;2.30;;;;;;;26.90;40.56;100332.63;10183812;29;20071;-78
2022/07/31 11:50:15;;;;;;;4.47;2.20;;;;;;;26.62;41.07;100324.09;10182967;29;21542;-79
2022/07/31 11:55:18;;;;;;;6.93;3.00;;;;;;;26.46;41.36;100326.41;10181679;29;20102;-77
2022/07/31 12:00:21;;;;;;;3.15;2.45;;;;;;;26.44;41.42;100324.97;10181035;29;20067;-78
2022/07/31 12:05:44;;;;;;;3.78;2.47;;;;;;;26.44;41.73;100323.06;10180660;29;20060;-78
2022/07/31 12:10:58;;;;;;;5.75;2.88;;;;;;;25.88;42.73;100332.34;10182666;29;20051;-78
2022/07/31 12:16:03;;;;;;;3.97;2.28;;;;;;;25.02;44.14;100324.75;10172870;29;20095;-77
2022/07/31 12:21:08;;;;;;;4.47;2.42;;;;;;;24.65;44.45;100322.59;10181162;29;20177;-77
2022/07/31 12:26:20;;;;;;;4.07;2.63;;;;;;;24.86;44.61;100323.34;10180150;29;20753;-78
2022/07/31 12:31:23;;;;;;;;;;;;;;;25.20;44.97;100316.59;10179852;29;20147;-77
2022/07/31 12:36:27;;;;;;;;;;;;;;;24.44;46.89;100322.94;10181212;29;20516;-78
2022/07/31 12:41:31;;;;;;;4.95;2.80;;;;;;;25.34;45.63;100315.44;10180490;29;19934;-77
2022/07/31 12:46:35;;;;;;;2.60;2.20;;;;;;;24.85;45.45;100299.66;10179866;29;20055;-77
2022/07/31 12:51:41;;;;;;;4.18;2.47;;;;;;;24.87;44.93;100301.13;10182985;29;20091;-78
2022/07/31 12:56:48;;;;;;;2.70;1.70;;;;;;;24.93;43.14;100302.16;10178268;29;20054;-77
2022/07/31 13:01:51;;;;;;;3.28;1.50;;;;;;;24.89;40.41;100309.16;10181752;29;20090;-79
2022/07/31 13:06:55;;;;;;;1.80;1.30;;;;;;;25.28;39.85;100301.75;10182194;29;20059;-77
2022/07/31 13:11:58;;;;;;;1.92;1.35;;;;;;;25.12;40.64;100294.88;10180837;29;20059;-78
2022/07/31 13:17:01;;;;;;;2.88;1.60;;;;;;;24.15;42.29;100300.41;10182832;29;20055;-77
2022/07/31 13:22:06;;;;;;;3.92;1.60;;;;;;;24.75;41.96;100281.78;10181621;29;20536;-77
2022/07/31 13:27:09;;;;;;;2.88;1.58;;;;;;;24.17;43.30;100287.31;10171757;28;20092;-77
2022/07/31 13:32:12;;;;;;;3.92;1.50;;;;;;;24.15;44.43;100296.81;10185425;28;20138;-78
2022/07/31 13:37:16;;;;;;;1.90;1.80;;;;;;;24.40;45.13;100281.31;10182813;29;20055;-77
2022/07/31 13:42:19;;;;;;;2.08;1.50;;;;;;;23.55;46.08;100283.19;10178424;29;20052;-77
2022/07/31 13:47:22;;;;;;;2.10;1.90;;;;;;;23.72;46.60;100283.59;10178325;29;20576;-78
2022/07/31 13:52:27;;;;;;;3.08;1.55;;;;;;;22.96;48.47;100293.06;10177364;29;20509;-77
2022/07/31 13:57:30;;;;;;;2.00;1.38;;;;;;;23.28;48.25;100288.66;10173719;28;20430;-78
2022/07/31 14:02:32;;;;;;;1.65;1.52;;;;;;;22.92;49.11;100289.03;10170949;28;20044;-78
2022/07/31 14:07:37;;;;;;;2.30;1.75;;;;;;;23.13;48.62;100288.88;10173506;28;20048;-77
2022/07/31 14:12:50;;;;;;;2.00;1.70;;;;;;;22.60;51.10;100291.50;10173441;28;20055;-77
2022/07/31 14:17:53;;;;;;;2.47;2.08;;;;;;;22.81;53.45;100286.91;10170950;28;20094;-77
2022/07/31 14:22:57;;;;;;;4.22;1.85;;;;;;;22.67;50.14;100286.88;10172500;29;20055;-77
2022/07/31 14:28:00;;;;;;;2.22;1.95;;;;;;;22.89;49.04;100289.44;10177638;29;20066;-79
2022/07/31 14:33:03;;;;;;;2.58;2.38;;;;;;;23.04;48.93;100289.25;10184235;29;20055;-77
2022/07/31 14:38:07;;;;;;;5.05;2.67;;;;;;;22.85;49.99;100283.56;10180815;28;20601;-78
2022/07/31 14:43:11;;;;;;;2.92;2.72;;;;;;;23.25;49.45;100283.63;10180059;28;20681;-78
2022/07/31 14:48:14;;;;;;;3.15;2.85;;;;;;;23.37;49.37;100281.94;10181504;28;20047;-80
2022/07/31 14:53:19;;;;;;;4.75;3.80;;;;;;;21.36;62.42;100303.09;10186729;28;20047;-78
2022/07/31 14:58:22;;;;;;;6.03;5.45;;;;;;;20.12;71.03;100316.78;10198171;28;20112;-80
2022/07/31 15:03:24;;;;;;;6.85;6.20;;;;;;;19.31;75.08;100318.44;10189228;28;20055;-80
2022/07/31 15:08:29;;;;;;;10.88;7.95;;;;;;;19.53;77.75;100316.72;10166613;29;20055;-79
2022/07/31 15:13:31;;;;;;;10.60;8.15;;;;;;;19.81;79.24;100310.69;10195737;29;20654;-79
2022/07/31 15:18:40;;;;;;;9.52;8.52;;;;;;;20.20;77.10;100301.38;10179462;29;20084;-80
2022/07/31 15:23:44;;;;;;;8.85;8.00;;;;;;;20.58;75.48;100288.44;10177007;29;20098;-80
2022/07/31 15:28:47;;;;;;;9.90;8.65;;;;;;;20.89;75.09;100285.41;10182209;29;20060;-80
2022/07/31 15:33:50;;;;;;;6.95;6.25;;;;;;;21.17;73.93;100281.91;10176149;29;20055;-80
2022/07/31 15:38:54;;;;;;;7.03;6.28;;;;;;;21.56;69.41;100280.59;10184779;29;20051;-79
2022/07/31 15:43:58;;;;;;;7.00;6.40;;;;;;;21.79;68.61;100269.41;10177407;29;20146;-79
2022/07/31 15:49:01;;;;;;;9.50;8.07;;;;;;;21.88;65.97;100262.72;10175582;29;20135;-79
2022/07/31 15:54:06;;;;;;;6.85;6.25;;;;;;;21.96;64.55;100259.81;10175201;29;20103;-79
2022/07/31 15:59:08;;;;;;;8.52;7.63;;;;;;;22.37;64.31;100247.16;10174707;29;20118;-80
2022/07/31 16:04:11;;;;;;;11.65;10.60;;;;;;;23.12;63.27;100235.16;10174778;29;20126;-80
2022/07/31 16:09:22;;;;;;;6.55;5.95;;;;;;;23.75;59.39;100240.16;10171807;29;20070;-79
2022/07/31 16:14:25;;;;;;;6.65;5.18;;;;;;;23.89;56.68;100230.00;10194126;29;20051;-80
2022/07/31 16:19:28;;;;;;;7.45;5.03;;;;;;;23.63;57.67;100214.44;10191050;29;20056;-79
2022/07/31 16:24:36;;;;;;;10.93;9.77;;;;;;;23.41;57.49;100205.63;10221719;29;20687;-80
2022/07/31 16:29:39;;;;;;;8.90;6.60;;;;;;;23.10;58.00;100192.56;10226138;29;20058;-80
2022/07/31 16:35:02;;;;;;;5.75;4.75;;;;;;;24.48;54.47;100193.22;10186893;29;20162;-80
2022/07/31 16:40:08;;;;;;;5.47;4.82;;;;;;;24.35;56.24;100181.47;10189090;29;20469;-80
2022/07/31 16:45:31;;;;;;;4.85;4.00;;;;;;;23.52;56.83;100184.94;10168584;29;20055;-80
2022/07/31 16:50:34;;;;;;;5.43;4.47;;;;;;;23.57;57.48;100180.50;10182608;29;20055;-79
2022/07/31 16:55:38;;;;;;;3.78;3.47;;;;;;;23.74;57.81;100182.75;10183885;29;20421;-78
2022/07/31 17:01:02;;;;;;;6.60;4.03;;;;;;;24.03;57.44;100156.75;10178958;29;20144;-78
2022/07/31 17:06:06;;;;;;;4.25;3.67;;;;;;;24.31;55.39;100148.97;10182895;29;20650;-79
2022/07/31 17:11:10;;;;;;;5.70;3.58;;;;;;;24.31;52.16;100156.38;10184706;29;20107;-79
2022/07/31 17:16:13;;;;;;;5.22;3.60;;;;;;;23.69;54.39;100157.88;10185495;29;20076;-80
2022/07/31 17:21:15;;;;;;;4.20;3.80;;;;;;;23.34;55.70;100147.22;10171213;28;20051;-78
2022/07/31 17:26:20;;;;;;;6.03;3.95;;;;;;;23.37;55.57;100147.66;10167062;28;20048;-78
2022/07/31 17:31:24;;;;;;;3.97;3.42;;;;;;;23.20;55.79;100140.94;10174292;28;20051;-78
2022/07/31 17:36:27;;;;;;;4.28;3.40;;;;;;;23.06;55.80;100142.81;10179058;28;20078;-77
2022/07/31 17:41:31;;;;;;;3.70;3.40;;;;;;;22.92;56.55;100144.72;10168521;28;20088;-79
2022/07/31 17:46:34;;;;;;;8.90;3.80;;;;;;;22.72;58.66;100142.00;10175164;28;20047;-78
2022/07/31 17:51:45;;;;;;;5.10;4.07;;;;;;;22.16;62.54;100152.38;10178900;29;20051;-78
2022/07/31 17:57:04;;;;;;;5.07;4.53;;;;;;;21.77;64.16;100153.94;10178248;28;20201;-78
2022/07/31 18:02:07;;;;;;;6.25;4.53;;;;;;;21.08;63.67;100150.16;10172402;28;20052;-78
2022/07/31 18:07:11;;;;;;;5.40;4.90;;;;;;;21.44;65.53;100165.50;10183088;29;21853;-78
2022/07/31 18:12:15;;;;;;;4.18;3.88;;;;;;;20.82;67.44;100169.88;10196886;29;20399;-78
2022/07/31 18:17:19;;;;;;;6.63;5.90;;;;;;;19.86;75.49;100197.34;10181687;29;20071;-78
2022/07/31 18:22:22;;;;;;;9.52;6.72;;;;;;;19.28;80.17;100201.72;10180898;29;20579;-78
2022/07/31 18:27:26;;;;;;;9.02;7.35;;;;;;;19.49;79.88;100209.16;10181216;29;21183;-79
2022/07/31 18:32:29;;;;;;;8.98;7.63;;;;;;;19.05;81.06;100209.09;10184261;29;20059;-78
2022/07/31 18:37:32;;;;;;;10.80;9.32;;;;;;;18.75;84.22;100217.97;10191485;29;20055;-78
2022/07/31 18:42:37;;;;;;;10.43;9.43;;;;;;;19.38;82.50;100221.34;10181713;29;20044;-78
2022/07/31 18:47:39;;;;;;;11.82;10.63;;;;;;;19.27;82.70;100227.25;10187902;29;20516;-79
2022/07/31 18:52:43;;;;;;;13.75;10.82;;;;;;;19.44;82.64;100236.09;10185119;29;20067;-78
2022/07/31 18:57:47;;;;;;;11.52;10.32;;;;;;;19.19;83.16;100236.31;10186029;29;20066;-79
2022/07/31 19:02:50;;;;;;;14.63;12.15;;;;;;;19.17;84.68;100240.25;10185590;29;21239;-80
2022/07/31 19:07:53;;;;;;;13.40;11.93;;;;;;;19.11;85.62;100239.13;10190625;28;20059;-79
2022/07/31 19:12:57;;;;;;;14.65;13.07;;;;;;;19.20;85.31;100231.75;10199870;28;20063;-79
2022/07/31 19:18:00;;;;;;;14.55;12.65;;;;;;;19.17;85.40;100234.81;10192824;28;20052;-79
2022/07/31 19:23:04;;;;;;;14.15;12.35;;;;;;;18.96;86.64;100236.38;10195381;28;20051;-79
2022/07/31 19:28:15;;;;;;;15.98;12.55;;;;;;;18.85;87.57;100235.97;10182171;28;20052;-79
2022/07/31 19:33:18;;;;;;;15.45;13.95;;;;;;;19.08;86.52;100247.66;10179906;28;20517;-80
2022/07/31 19:38:21;;;;;;;16.15;14.27;;;;;;;18.74;87.88;100245.38;10185527;28;20079;-79
2022/07/31 19:43:25;;;;;;;17.50;15.32;;;;;;;18.79;87.44;100253.88;10190246;28;20119;-80
2022/07/31 19:48:28;;;;;;;18.90;14.57;;;;;;;18.92;87.04;100250.53;10192631;29;20048;-79
2022/07/31 19:53:31;;;;;;;17.27;15.63;;;;;;;19.10;86.56;100252.94;10216796;29;20056;-78
2022/07/31 19:58:37;;;;;;;16.20;14.48;;;;;;;19.07;86.51;100242.41;10219690;29;20043;-79
2022/07/31 20:03:40;;;;;;;16.00;12.93;;;;;;;19.12;86.09;100253.59;10199940;29;20044;-79
2022/07/31 20:08:43;;;;;;;17.40;14.10;;;;;;;18.80;87.02;100253.66;10192028;29;20122;-79
2022/07/31 20:13:47;;;;;;;15.20;13.55;;;;;;;18.85;87.75;100253.13;10188498;29;20063;-79
2022/07/31 20:18:50;;;;;;;18.90;15.05;;;;;;;18.88;87.58;100260.09;10189446;29;20082;-79
2022/07/31 20:23:55;;;;;;;16.77;14.10;;;;;;;18.85;87.46;100260.47;10187268;28;20055;-79
2022/07/31 20:28:59;;;;;;;16.13;14.10;;;;;;;19.11;86.22;100255.47;10189160;28;20052;-79
2022/07/31 20:40:51;;;;;;;10.20;8.15;;;;;;;18.23;87.76;100264.03;10187498;28;20353;-79
2022/07/31 20:45:58;;;;;;;8.75;7.85;;;;;;;18.51;86.00;100256.22;10191152;28;20066;-79
2022/07/31 20:51:03;;;;;;;11.68;7.47;;;;;;;18.47;86.02;100258.44;10187067;28;20047;-81
2022/07/31 20:56:06;;;;;;;7.47;6.28;;;;;;;18.17;87.69;100257.41;10193828;29;20810;-80
2022/07/31 21:01:10;;;;;;;7.78;6.45;;;;;;;18.32;86.71;100261.09;10190952;29;20051;-79
2022/07/31 21:06:13;;;;;;;10.02;7.63;;;;;;;18.63;85.94;100252.06;10189767;28;20048;-80
2022/07/31 21:11:16;;;;;;;7.78;6.95;;;;;;;18.71;85.51;100251.16;10187620;29;20048;-81
2022/07/31 21:16:20;;;;;;;10.40;7.72;;;;;;;18.61;85.69;100253.28;10188667;28;20051;-79
2022/07/31 21:21:23;;;;;;;10.82;8.50;;;;;;;18.71;85.21;100262.91;10185644;28;20107;-80
2022/07/31 21:26:27;;;;;;;10.82;8.10;;;;;;;18.40;86.63;100256.63;10183461;29;20066;-79
2022/07/31 21:31:31;;;;;;;10.93;8.40;;;;;;;18.25;88.04;100256.53;10189469;28;20520;-80
2022/07/31 21:36:35;;;;;;;9.27;8.32;;;;;;;18.59;86.67;100258.88;10192399;28;20158;-80
2022/07/31 21:41:38;;;;;;;12.40;8.75;;;;;;;18.39;87.94;100263.09;10189803;28;20127;-80
2022/07/31 21:46:45;;;;;;;10.43;8.68;;;;;;;18.41;88.07;100259.19;10187718;28;21589;-79
2022/07/31 21:51:54;;;;;;;10.20;9.20;;;;;;;18.43;87.81;100257.13;10181708;28;20048;-79
2022/07/31 21:56:56;;;;;;;13.30;10.65;;;;;;;18.12;89.42;100268.81;10182388;28;20520;-79
2022/07/31 22:02:01;;;;;;;14.48;11.15;;;;;;;18.17;89.35;100278.31;10181112;29;20048;-79
2022/07/31 22:12:24;;;;;;;13.23;11.35;;;;;;;18.14;88.72;100265.94;10208758;28;20046;-79
2022/07/31 22:17:29;;;;;;;20.80;12.68;;;;;;;18.35;87.77;100281.66;10202123;28;20082;-79
2022/07/31 22:22:32;;;;;;;18.20;12.45;;;;;;;18.09;88.77;100276.50;10183274;29;20055;-79
2022/07/31 22:27:55;;;;;;;20.92;11.70;;;;;;;18.05;89.60;100269.72;10183663;29;21340;-79
2022/07/31 22:33:00;;;;;;;16.73;12.95;;;;;;;18.06;89.65;100279.56;10176673;28;20055;-79
2022/07/31 22:38:03;;;;;;;17.23;12.15;;;;;;;18.09;89.00;100279.19;10177604;28;20055;-79
2022/07/31 22:43:06;;;;;;;19.23;13.20;;;;;;;18.20;88.60;100281.53;10179601;29;20067;-79
2022/07/31 22:48:31;;;;;;;17.85;13.15;;;;;;;18.29;87.99;100279.63;10194140;29;20048;-78
2022/07/31 22:53:34;;;;;;;19.70;12.90;;;;;;;18.06;89.25;100293.16;10180715;29;20092;-79
2022/07/31 22:58:37;;;;;;;16.30;12.18;;;;;;;18.31;87.88;100283.84;10181931;29;20237;-79
2022/07/31 23:03:42;;;;;;;16.02;10.52;;;;;;;18.35;87.81;100273.50;10188086;29;20071;-78
2022/07/31 23:08:44;;;;;;;15.68;10.00;;;;;;;17.98;88.29;100279.59;10188274;29;20055;-79
2022/07/31 23:13:51;;;;;;;10.95;9.48;;;;;;;18.27;87.54;100277.09;10181551;29;20059;-79
2022/07/31 23:18:56;;;;;;;14.82;9.30;;;;;;;18.18;88.25;100280.00;10181669;29;20059;-79
2022/07/31 23:23:59;;;;;;;11.50;8.63;;;;;;;17.89;89.48;100276.88;10220199;29;20056;-78
2022/07/31 23:29:02;;;;;;;13.27;9.15;;;;;;;17.92;88.63;100279.22;10181090;29;20095;-79
2022/07/31 23:34:06;;;;;;;13.20;9.50;;;;;;;17.72;90.41;100279.78;10179400;29;20782;-79
2022/07/31 23:39:10;;;;;;;12.32;10.02;;;;;;;17.98;89.27;100279.59;10177929;29;20146;-79